sensor_id;sensor_type;location;lat;lon;timestamp;P1;durP1;ratioP1;P2;durP2;ratioP2
11665;SDS011;5889;51.350;6.708;2022-11-20T00:01:24;27.53;;;16.17;;
11665;SDS011;5889;51.350;6.708;2022-11-20T00:03:52;26.77;;;16.30;;
11665;SDS011;5889;51.350;6.708;2022-11-20T00:06:20;31.27;;;17.03;;
11665;SDS011;5889;51.350;6.708;2022-11-20T00:08:48;25.10;;;15.67;;
11665;SDS011;5889;51.350;6.708;2022-11-20T00:11:16;26.90;;;14.83;;
11665;SDS011;5889;51.350;6.708;2022-11-20T00:13:44;23.73;;;13.30;;
11665;SDS011;5889;51.350;6.708;2022-11-20T00:16:13;23.07;;;13.23;;
11665;SDS011;5889;51.350;6.708;2022-11-20T00:18:43;24.90;;;13.00;;
11665;SDS011;5889;51.350;6.708;2022-11-20T00:21:10;21.50;;;12.63;;
11665;SDS011;5889;51.350;6.708;2022-11-20T00:23:38;26.17;;;14.80;;
11665;SDS011;5889;51.350;6.708;2022-11-20T00:26:07;23.27;;;14.20;;
11665;SDS011;5889;51.350;6.708;2022-11-20T00:28:36;27.23;;;14.10;;
11665;SDS011;5889;51.350;6.708;2022-11-20T00:31:04;25.63;;;13.37;;
11665;SDS011;5889;51.350;6.708;2022-11-20T00:33:32;28.20;;;14.37;;
11665;SDS011;5889;51.350;6.708;2022-11-20T00:36:01;23.90;;;13.57;;
11665;SDS011;5889;51.350;6.708;2022-11-20T00:38:29;26.47;;;13.97;;
11665;SDS011;5889;51.350;6.708;2022-11-20T00:40:56;30.17;;;14.27;;
11665;SDS011;5889;51.350;6.708;2022-11-20T00:43:24;30.43;;;16.33;;
11665;SDS011;5889;51.350;6.708;2022-11-20T00:45:55;29.87;;;16.80;;
11665;SDS011;5889;51.350;6.708;2022-11-20T00:48:23;31.27;;;16.30;;
11665;SDS011;5889;51.350;6.708;2022-11-20T00:50:49;32.87;;;17.63;;
11665;SDS011;5889;51.350;6.708;2022-11-20T00:53:18;33.43;;;17.30;;
11665;SDS011;5889;51.350;6.708;2022-11-20T00:55:52;33.30;;;17.40;;
11665;SDS011;5889;51.350;6.708;2022-11-20T00:58:19;29.23;;;17.10;;
11665;SDS011;5889;51.350;6.708;2022-11-20T01:00:46;31.63;;;18.10;;
11665;SDS011;5889;51.350;6.708;2022-11-20T01:03:14;32.00;;;17.93;;
11665;SDS011;5889;51.350;6.708;2022-11-20T01:05:41;34.63;;;17.23;;
11665;SDS011;5889;51.350;6.708;2022-11-20T01:08:08;31.00;;;16.87;;
11665;SDS011;5889;51.350;6.708;2022-11-20T01:10:37;28.67;;;16.63;;
11665;SDS011;5889;51.350;6.708;2022-11-20T01:13:04;29.57;;;17.07;;
11665;SDS011;5889;51.350;6.708;2022-11-20T01:15:48;29.20;;;17.43;;
11665;SDS011;5889;51.350;6.708;2022-11-20T01:18:14;31.57;;;18.37;;
11665;SDS011;5889;51.350;6.708;2022-11-20T01:20:41;31.73;;;17.37;;
11665;SDS011;5889;51.350;6.708;2022-11-20T01:23:08;30.20;;;16.93;;
11665;SDS011;5889;51.350;6.708;2022-11-20T01:25:36;31.10;;;16.77;;
11665;SDS011;5889;51.350;6.708;2022-11-20T01:28:03;32.03;;;17.47;;
11665;SDS011;5889;51.350;6.708;2022-11-20T01:30:30;31.47;;;18.37;;
11665;SDS011;5889;51.350;6.708;2022-11-20T01:32:57;33.97;;;19.30;;
11665;SDS011;5889;51.350;6.708;2022-11-20T01:35:24;33.77;;;18.60;;
11665;SDS011;5889;51.350;6.708;2022-11-20T01:37:51;31.87;;;18.43;;
11665;SDS011;5889;51.350;6.708;2022-11-20T01:40:18;29.33;;;17.67;;
11665;SDS011;5889;51.350;6.708;2022-11-20T01:42:46;31.43;;;18.50;;
11665;SDS011;5889;51.350;6.708;2022-11-20T01:45:51;32.13;;;18.13;;
11665;SDS011;5889;51.350;6.708;2022-11-20T01:48:25;32.13;;;17.43;;
11665;SDS011;5889;51.350;6.708;2022-11-20T01:50:56;33.40;;;18.17;;
11665;SDS011;5889;51.350;6.708;2022-11-20T01:53:27;29.77;;;18.00;;
11665;SDS011;5889;51.350;6.708;2022-11-20T01:55:58;29.37;;;17.50;;
11665;SDS011;5889;51.350;6.708;2022-11-20T01:58:30;35.37;;;17.93;;
11665;SDS011;5889;51.350;6.708;2022-11-20T02:00:59;33.90;;;17.87;;
11665;SDS011;5889;51.350;6.708;2022-11-20T02:03:26;32.40;;;17.07;;
11665;SDS011;5889;51.350;6.708;2022-11-20T02:05:55;36.27;;;17.20;;
11665;SDS011;5889;51.350;6.708;2022-11-20T02:08:29;31.27;;;17.70;;
11665;SDS011;5889;51.350;6.708;2022-11-20T02:10:56;30.83;;;17.60;;
11665;SDS011;5889;51.350;6.708;2022-11-20T02:13:23;32.97;;;17.97;;
11665;SDS011;5889;51.350;6.708;2022-11-20T02:16:10;30.23;;;17.47;;
11665;SDS011;5889;51.350;6.708;2022-11-20T02:18:46;29.80;;;17.33;;
11665;SDS011;5889;51.350;6.708;2022-11-20T02:21:17;32.23;;;17.40;;
11665;SDS011;5889;51.350;6.708;2022-11-20T02:24:08;33.93;;;17.73;;
11665;SDS011;5889;51.350;6.708;2022-11-20T02:26:47;30.50;;;17.53;;
11665;SDS011;5889;51.350;6.708;2022-11-20T02:29:19;33.07;;;16.73;;
11665;SDS011;5889;51.350;6.708;2022-11-20T02:31:51;28.93;;;16.70;;
11665;SDS011;5889;51.350;6.708;2022-11-20T02:34:18;30.20;;;17.20;;
11665;SDS011;5889;51.350;6.708;2022-11-20T02:36:45;30.17;;;16.70;;
11665;SDS011;5889;51.350;6.708;2022-11-20T02:39:16;31.77;;;17.30;;
11665;SDS011;5889;51.350;6.708;2022-11-20T02:41:43;29.53;;;17.30;;
11665;SDS011;5889;51.350;6.708;2022-11-20T02:44:10;31.43;;;17.90;;
11665;SDS011;5889;51.350;6.708;2022-11-20T02:46:36;30.73;;;18.03;;
11665;SDS011;5889;51.350;6.708;2022-11-20T02:49:04;34.00;;;18.77;;
11665;SDS011;5889;51.350;6.708;2022-11-20T02:51:31;32.67;;;17.37;;
11665;SDS011;5889;51.350;6.708;2022-11-20T02:53:58;30.23;;;18.90;;
11665;SDS011;5889;51.350;6.708;2022-11-20T02:56:27;34.77;;;18.83;;
11665;SDS011;5889;51.350;6.708;2022-11-20T02:58:53;32.23;;;17.93;;
11665;SDS011;5889;51.350;6.708;2022-11-20T03:01:20;32.57;;;19.17;;
11665;SDS011;5889;51.350;6.708;2022-11-20T03:03:47;31.47;;;17.57;;
11665;SDS011;5889;51.350;6.708;2022-11-20T03:06:14;36.47;;;18.03;;
11665;SDS011;5889;51.350;6.708;2022-11-20T03:08:42;32.47;;;18.87;;
11665;SDS011;5889;51.350;6.708;2022-11-20T03:11:09;35.53;;;19.87;;
11665;SDS011;5889;51.350;6.708;2022-11-20T03:13:37;35.30;;;19.63;;
11665;SDS011;5889;51.350;6.708;2022-11-20T03:16:05;36.70;;;20.47;;
11665;SDS011;5889;51.350;6.708;2022-11-20T03:18:36;35.33;;;20.43;;
11665;SDS011;5889;51.350;6.708;2022-11-20T03:21:03;38.90;;;21.97;;
11665;SDS011;5889;51.350;6.708;2022-11-20T03:23:31;36.83;;;21.10;;
11665;SDS011;5889;51.350;6.708;2022-11-20T03:26:09;38.97;;;22.33;;
11665;SDS011;5889;51.350;6.708;2022-11-20T03:28:38;37.33;;;21.40;;
11665;SDS011;5889;51.350;6.708;2022-11-20T03:31:06;36.87;;;21.03;;
11665;SDS011;5889;51.350;6.708;2022-11-20T03:33:35;37.60;;;21.00;;
11665;SDS011;5889;51.350;6.708;2022-11-20T03:36:02;42.17;;;21.83;;
11665;SDS011;5889;51.350;6.708;2022-11-20T03:38:30;36.23;;;21.90;;
11665;SDS011;5889;51.350;6.708;2022-11-20T03:40:58;38.53;;;22.83;;
11665;SDS011;5889;51.350;6.708;2022-11-20T03:43:26;39.43;;;21.67;;
11665;SDS011;5889;51.350;6.708;2022-11-20T03:45:55;39.30;;;21.90;;
11665;SDS011;5889;51.350;6.708;2022-11-20T03:48:22;36.50;;;21.23;;
11665;SDS011;5889;51.350;6.708;2022-11-20T03:50:50;35.50;;;20.03;;
11665;SDS011;5889;51.350;6.708;2022-11-20T03:53:18;37.57;;;20.07;;
11665;SDS011;5889;51.350;6.708;2022-11-20T03:55:50;35.93;;;21.37;;
11665;SDS011;5889;51.350;6.708;2022-11-20T03:58:17;39.83;;;21.63;;
11665;SDS011;5889;51.350;6.708;2022-11-20T04:00:44;39.83;;;21.03;;
11665;SDS011;5889;51.350;6.708;2022-11-20T04:03:12;38.17;;;20.43;;
11665;SDS011;5889;51.350;6.708;2022-11-20T04:05:39;37.67;;;21.67;;
11665;SDS011;5889;51.350;6.708;2022-11-20T04:08:06;38.13;;;22.80;;
11665;SDS011;5889;51.350;6.708;2022-11-20T04:10:33;37.00;;;21.57;;
11665;SDS011;5889;51.350;6.708;2022-11-20T04:13:00;40.37;;;21.93;;
11665;SDS011;5889;51.350;6.708;2022-11-20T04:15:27;38.03;;;23.43;;
11665;SDS011;5889;51.350;6.708;2022-11-20T04:17:54;38.17;;;23.03;;
11665;SDS011;5889;51.350;6.708;2022-11-20T04:20:22;41.83;;;23.60;;
11665;SDS011;5889;51.350;6.708;2022-11-20T04:22:52;40.93;;;24.47;;
11665;SDS011;5889;51.350;6.708;2022-11-20T04:25:20;40.40;;;23.47;;
11665;SDS011;5889;51.350;6.708;2022-11-20T04:27:46;41.90;;;24.03;;
11665;SDS011;5889;51.350;6.708;2022-11-20T04:30:13;42.13;;;23.53;;
11665;SDS011;5889;51.350;6.708;2022-11-20T04:32:40;42.70;;;23.70;;
11665;SDS011;5889;51.350;6.708;2022-11-20T04:35:07;42.67;;;23.90;;
11665;SDS011;5889;51.350;6.708;2022-11-20T04:37:36;44.23;;;23.93;;
11665;SDS011;5889;51.350;6.708;2022-11-20T04:40:03;40.13;;;23.87;;
11665;SDS011;5889;51.350;6.708;2022-11-20T04:42:30;41.83;;;23.70;;
11665;SDS011;5889;51.350;6.708;2022-11-20T04:44:57;38.90;;;23.17;;
11665;SDS011;5889;51.350;6.708;2022-11-20T04:47:24;40.67;;;22.53;;
11665;SDS011;5889;51.350;6.708;2022-11-20T04:49:51;45.37;;;23.37;;
11665;SDS011;5889;51.350;6.708;2022-11-20T04:52:18;40.60;;;23.27;;
11665;SDS011;5889;51.350;6.708;2022-11-20T04:54:46;45.40;;;25.57;;
11665;SDS011;5889;51.350;6.708;2022-11-20T04:57:14;42.43;;;23.37;;
11665;SDS011;5889;51.350;6.708;2022-11-20T04:59:41;39.73;;;22.10;;
11665;SDS011;5889;51.350;6.708;2022-11-20T05:02:08;38.67;;;23.23;;
11665;SDS011;5889;51.350;6.708;2022-11-20T05:04:36;40.20;;;23.47;;
11665;SDS011;5889;51.350;6.708;2022-11-20T05:07:03;41.13;;;22.90;;
11665;SDS011;5889;51.350;6.708;2022-11-20T05:09:30;44.07;;;23.17;;
11665;SDS011;5889;51.350;6.708;2022-11-20T05:11:59;40.83;;;23.13;;
11665;SDS011;5889;51.350;6.708;2022-11-20T05:14:25;39.37;;;23.13;;
11665;SDS011;5889;51.350;6.708;2022-11-20T05:16:52;38.33;;;22.43;;
11665;SDS011;5889;51.350;6.708;2022-11-20T05:19:19;41.13;;;22.53;;
11665;SDS011;5889;51.350;6.708;2022-11-20T05:21:46;41.07;;;22.07;;
11665;SDS011;5889;51.350;6.708;2022-11-20T05:24:13;38.53;;;23.27;;
11665;SDS011;5889;51.350;6.708;2022-11-20T05:26:40;42.77;;;22.30;;
11665;SDS011;5889;51.350;6.708;2022-11-20T05:29:10;35.07;;;21.27;;
11665;SDS011;5889;51.350;6.708;2022-11-20T05:31:38;39.50;;;22.63;;
11665;SDS011;5889;51.350;6.708;2022-11-20T05:34:05;37.93;;;21.87;;
11665;SDS011;5889;51.350;6.708;2022-11-20T05:36:33;37.93;;;22.50;;
11665;SDS011;5889;51.350;6.708;2022-11-20T05:39:00;41.40;;;23.00;;
11665;SDS011;5889;51.350;6.708;2022-11-20T05:41:27;40.70;;;23.63;;
11665;SDS011;5889;51.350;6.708;2022-11-20T05:43:55;39.07;;;22.87;;
11665;SDS011;5889;51.350;6.708;2022-11-20T05:46:24;39.13;;;22.20;;
11665;SDS011;5889;51.350;6.708;2022-11-20T05:48:51;38.47;;;22.30;;
11665;SDS011;5889;51.350;6.708;2022-11-20T05:51:18;36.60;;;21.87;;
11665;SDS011;5889;51.350;6.708;2022-11-20T05:53:45;36.90;;;21.80;;
11665;SDS011;5889;51.350;6.708;2022-11-20T05:56:13;37.93;;;21.60;;
11665;SDS011;5889;51.350;6.708;2022-11-20T05:58:42;36.57;;;21.80;;
11665;SDS011;5889;51.350;6.708;2022-11-20T06:01:09;34.90;;;20.73;;
11665;SDS011;5889;51.350;6.708;2022-11-20T06:03:40;35.70;;;21.67;;
11665;SDS011;5889;51.350;6.708;2022-11-20T06:06:08;37.97;;;21.33;;
11665;SDS011;5889;51.350;6.708;2022-11-20T06:08:35;36.33;;;20.57;;
11665;SDS011;5889;51.350;6.708;2022-11-20T06:11:03;40.10;;;26.33;;
11665;SDS011;5889;51.350;6.708;2022-11-20T06:13:31;34.60;;;20.00;;
11665;SDS011;5889;51.350;6.708;2022-11-20T06:15:58;37.57;;;20.40;;
11665;SDS011;5889;51.350;6.708;2022-11-20T06:18:25;37.63;;;21.27;;
11665;SDS011;5889;51.350;6.708;2022-11-20T06:21:00;38.43;;;19.93;;
11665;SDS011;5889;51.350;6.708;2022-11-20T06:23:28;32.77;;;19.97;;
11665;SDS011;5889;51.350;6.708;2022-11-20T06:25:56;35.77;;;20.67;;
11665;SDS011;5889;51.350;6.708;2022-11-20T06:28:23;35.73;;;21.53;;
11665;SDS011;5889;51.350;6.708;2022-11-20T06:30:50;32.20;;;20.33;;
11665;SDS011;5889;51.350;6.708;2022-11-20T06:33:17;38.00;;;21.00;;
11665;SDS011;5889;51.350;6.708;2022-11-20T06:35:44;37.03;;;21.13;;
11665;SDS011;5889;51.350;6.708;2022-11-20T06:38:12;36.73;;;20.33;;
11665;SDS011;5889;51.350;6.708;2022-11-20T06:40:40;32.87;;;20.90;;
11665;SDS011;5889;51.350;6.708;2022-11-20T06:43:07;37.10;;;21.40;;
11665;SDS011;5889;51.350;6.708;2022-11-20T06:45:34;37.00;;;19.90;;
11665;SDS011;5889;51.350;6.708;2022-11-20T06:48:01;34.53;;;20.27;;
11665;SDS011;5889;51.350;6.708;2022-11-20T06:50:29;37.53;;;20.77;;
11665;SDS011;5889;51.350;6.708;2022-11-20T06:52:56;38.13;;;20.50;;
11665;SDS011;5889;51.350;6.708;2022-11-20T06:55:27;32.37;;;19.80;;
11665;SDS011;5889;51.350;6.708;2022-11-20T06:57:54;34.10;;;21.30;;
11665;SDS011;5889;51.350;6.708;2022-11-20T07:00:21;34.07;;;20.23;;
11665;SDS011;5889;51.350;6.708;2022-11-20T07:02:48;39.27;;;21.20;;
11665;SDS011;5889;51.350;6.708;2022-11-20T07:05:15;32.93;;;19.57;;
11665;SDS011;5889;51.350;6.708;2022-11-20T07:07:42;33.37;;;19.20;;
11665;SDS011;5889;51.350;6.708;2022-11-20T07:10:09;35.27;;;19.50;;
11665;SDS011;5889;51.350;6.708;2022-11-20T07:12:38;34.43;;;19.37;;
11665;SDS011;5889;51.350;6.708;2022-11-20T07:15:05;34.60;;;20.00;;
11665;SDS011;5889;51.350;6.708;2022-11-20T07:17:33;32.67;;;18.73;;
11665;SDS011;5889;51.350;6.708;2022-11-20T07:19:59;35.10;;;18.90;;
11665;SDS011;5889;51.350;6.708;2022-11-20T07:22:26;33.60;;;20.10;;
11665;SDS011;5889;51.350;6.708;2022-11-20T07:24:53;31.43;;;18.30;;
11665;SDS011;5889;51.350;6.708;2022-11-20T07:27:20;28.47;;;17.90;;
11665;SDS011;5889;51.350;6.708;2022-11-20T07:29:48;33.90;;;19.40;;
11665;SDS011;5889;51.350;6.708;2022-11-20T07:32:15;31.53;;;18.37;;
11665;SDS011;5889;51.350;6.708;2022-11-20T07:34:42;31.73;;;19.10;;
11665;SDS011;5889;51.350;6.708;2022-11-20T07:37:09;31.70;;;18.53;;
11665;SDS011;5889;51.350;6.708;2022-11-20T07:39:36;33.03;;;19.23;;
11665;SDS011;5889;51.350;6.708;2022-11-20T07:42:03;33.30;;;18.77;;
11665;SDS011;5889;51.350;6.708;2022-11-20T07:44:30;31.67;;;19.10;;
11665;SDS011;5889;51.350;6.708;2022-11-20T07:46:58;32.27;;;19.00;;
11665;SDS011;5889;51.350;6.708;2022-11-20T07:49:25;30.50;;;18.33;;
11665;SDS011;5889;51.350;6.708;2022-11-20T07:51:52;30.27;;;18.40;;
11665;SDS011;5889;51.350;6.708;2022-11-20T07:54:19;30.90;;;19.27;;
11665;SDS011;5889;51.350;6.708;2022-11-20T07:56:47;40.37;;;19.87;;
11665;SDS011;5889;51.350;6.708;2022-11-20T07:59:14;32.07;;;19.27;;
11665;SDS011;5889;51.350;6.708;2022-11-20T08:01:41;35.17;;;20.63;;
11665;SDS011;5889;51.350;6.708;2022-11-20T08:04:10;37.40;;;20.97;;
11665;SDS011;5889;51.350;6.708;2022-11-20T08:06:37;34.37;;;20.50;;
11665;SDS011;5889;51.350;6.708;2022-11-20T08:09:04;31.10;;;20.10;;
11665;SDS011;5889;51.350;6.708;2022-11-20T08:11:31;35.70;;;20.93;;
11665;SDS011;5889;51.350;6.708;2022-11-20T08:14:15;37.63;;;21.53;;
11665;SDS011;5889;51.350;6.708;2022-11-20T08:16:43;37.13;;;20.57;;
11665;SDS011;5889;51.350;6.708;2022-11-20T08:19:12;32.53;;;20.67;;
11665;SDS011;5889;51.350;6.708;2022-11-20T08:21:40;38.50;;;21.00;;
11665;SDS011;5889;51.350;6.708;2022-11-20T08:24:07;34.67;;;21.17;;
11665;SDS011;5889;51.350;6.708;2022-11-20T08:26:35;36.03;;;19.70;;
11665;SDS011;5889;51.350;6.708;2022-11-20T08:29:03;36.90;;;20.60;;
11665;SDS011;5889;51.350;6.708;2022-11-20T08:31:31;35.13;;;19.83;;
11665;SDS011;5889;51.350;6.708;2022-11-20T08:33:58;33.77;;;19.60;;
11665;SDS011;5889;51.350;6.708;2022-11-20T08:36:26;37.00;;;20.63;;
11665;SDS011;5889;51.350;6.708;2022-11-20T08:38:54;32.20;;;20.10;;
11665;SDS011;5889;51.350;6.708;2022-11-20T08:41:21;34.87;;;20.20;;
11665;SDS011;5889;51.350;6.708;2022-11-20T08:43:53;36.17;;;20.33;;
11665;SDS011;5889;51.350;6.708;2022-11-20T08:46:21;36.63;;;20.67;;
11665;SDS011;5889;51.350;6.708;2022-11-20T08:48:49;31.50;;;20.27;;
11665;SDS011;5889;51.350;6.708;2022-11-20T08:51:17;33.17;;;20.20;;
11665;SDS011;5889;51.350;6.708;2022-11-20T08:53:46;32.10;;;19.27;;
11665;SDS011;5889;51.350;6.708;2022-11-20T08:56:14;33.80;;;19.10;;
11665;SDS011;5889;51.350;6.708;2022-11-20T08:58:41;30.97;;;18.93;;
11665;SDS011;5889;51.350;6.708;2022-11-20T09:01:08;33.20;;;19.23;;
11665;SDS011;5889;51.350;6.708;2022-11-20T09:03:36;31.57;;;18.57;;
11665;SDS011;5889;51.350;6.708;2022-11-20T09:06:04;33.83;;;19.73;;
11665;SDS011;5889;51.350;6.708;2022-11-20T09:08:33;33.07;;;19.30;;
11665;SDS011;5889;51.350;6.708;2022-11-20T09:11:03;32.37;;;18.77;;
11665;SDS011;5889;51.350;6.708;2022-11-20T09:13:30;33.30;;;20.27;;
11665;SDS011;5889;51.350;6.708;2022-11-20T09:16:01;30.33;;;18.83;;
11665;SDS011;5889;51.350;6.708;2022-11-20T09:18:29;32.27;;;18.20;;
11665;SDS011;5889;51.350;6.708;2022-11-20T09:20:57;30.60;;;18.97;;
11665;SDS011;5889;51.350;6.708;2022-11-20T09:23:25;30.40;;;18.93;;
11665;SDS011;5889;51.350;6.708;2022-11-20T09:25:52;30.60;;;18.80;;
11665;SDS011;5889;51.350;6.708;2022-11-20T09:28:22;30.73;;;18.70;;
11665;SDS011;5889;51.350;6.708;2022-11-20T09:30:49;30.67;;;18.43;;
11665;SDS011;5889;51.350;6.708;2022-11-20T09:33:16;32.80;;;19.67;;
11665;SDS011;5889;51.350;6.708;2022-11-20T09:35:44;29.73;;;18.80;;
11665;SDS011;5889;51.350;6.708;2022-11-20T09:38:10;32.03;;;18.90;;
11665;SDS011;5889;51.350;6.708;2022-11-20T09:40:39;32.17;;;18.80;;
11665;SDS011;5889;51.350;6.708;2022-11-20T09:43:11;30.80;;;18.07;;
11665;SDS011;5889;51.350;6.708;2022-11-20T09:45:53;30.00;;;18.60;;
11665;SDS011;5889;51.350;6.708;2022-11-20T09:48:36;25.37;;;17.10;;
11665;SDS011;5889;51.350;6.708;2022-11-20T09:51:16;30.60;;;17.17;;
11665;SDS011;5889;51.350;6.708;2022-11-20T09:54:00;26.60;;;15.63;;
11665;SDS011;5889;51.350;6.708;2022-11-20T09:56:33;26.47;;;16.70;;
11665;SDS011;5889;51.350;6.708;2022-11-20T09:59:04;26.63;;;16.03;;
11665;SDS011;5889;51.350;6.708;2022-11-20T10:01:35;26.43;;;16.03;;
11665;SDS011;5889;51.350;6.708;2022-11-20T10:04:06;29.30;;;16.47;;
11665;SDS011;5889;51.350;6.708;2022-11-20T10:06:41;23.27;;;15.30;;
11665;SDS011;5889;51.350;6.708;2022-11-20T10:09:16;25.50;;;15.47;;
11665;SDS011;5889;51.350;6.708;2022-11-20T10:11:51;26.40;;;15.67;;
11665;SDS011;5889;51.350;6.708;2022-11-20T10:14:33;28.03;;;16.93;;
11665;SDS011;5889;51.350;6.708;2022-11-20T10:17:11;24.60;;;15.27;;
11665;SDS011;5889;51.350;6.708;2022-11-20T10:19:46;24.30;;;15.63;;
11665;SDS011;5889;51.350;6.708;2022-11-20T10:22:25;29.10;;;16.33;;
11665;SDS011;5889;51.350;6.708;2022-11-20T10:25:09;25.97;;;16.53;;
11665;SDS011;5889;51.350;6.708;2022-11-20T10:30:45;23.67;;;14.90;;
11665;SDS011;5889;51.350;6.708;2022-11-20T10:33:19;25.93;;;16.43;;
11665;SDS011;5889;51.350;6.708;2022-11-20T10:35:49;26.70;;;15.67;;
11665;SDS011;5889;51.350;6.708;2022-11-20T10:38:21;24.23;;;15.67;;
11665;SDS011;5889;51.350;6.708;2022-11-20T10:40:52;25.57;;;14.17;;
11665;SDS011;5889;51.350;6.708;2022-11-20T10:43:43;24.87;;;14.03;;
11665;SDS011;5889;51.350;6.708;2022-11-20T10:46:12;24.50;;;15.10;;
11665;SDS011;5889;51.350;6.708;2022-11-20T10:48:45;27.73;;;14.57;;
11665;SDS011;5889;51.350;6.708;2022-11-20T10:51:15;24.47;;;14.43;;
11665;SDS011;5889;51.350;6.708;2022-11-20T10:53:53;23.17;;;13.80;;
11665;SDS011;5889;51.350;6.708;2022-11-20T10:56:26;27.13;;;14.40;;
11665;SDS011;5889;51.350;6.708;2022-11-20T10:59:03;26.30;;;14.90;;
11665;SDS011;5889;51.350;6.708;2022-11-20T11:01:52;26.80;;;14.63;;
11665;SDS011;5889;51.350;6.708;2022-11-20T11:04:26;22.70;;;14.40;;
11665;SDS011;5889;51.350;6.708;2022-11-20T11:07:03;25.67;;;14.67;;
11665;SDS011;5889;51.350;6.708;2022-11-20T11:09:35;27.00;;;15.53;;
11665;SDS011;5889;51.350;6.708;2022-11-20T11:12:06;27.87;;;15.60;;
11665;SDS011;5889;51.350;6.708;2022-11-20T11:14:41;27.03;;;15.73;;
11665;SDS011;5889;51.350;6.708;2022-11-20T11:17:18;31.07;;;16.40;;
11665;SDS011;5889;51.350;6.708;2022-11-20T11:22:33;26.40;;;16.00;;
11665;SDS011;5889;51.350;6.708;2022-11-20T11:25:11;29.40;;;16.83;;
11665;SDS011;5889;51.350;6.708;2022-11-20T11:27:45;30.27;;;16.97;;
11665;SDS011;5889;51.350;6.708;2022-11-20T11:30:14;31.17;;;16.33;;
11665;SDS011;5889;51.350;6.708;2022-11-20T11:32:42;27.43;;;15.83;;
11665;SDS011;5889;51.350;6.708;2022-11-20T11:35:20;27.50;;;15.30;;
11665;SDS011;5889;51.350;6.708;2022-11-20T11:37:48;26.60;;;15.50;;
11665;SDS011;5889;51.350;6.708;2022-11-20T11:40:19;25.93;;;14.83;;
11665;SDS011;5889;51.350;6.708;2022-11-20T11:42:56;27.73;;;15.43;;
11665;SDS011;5889;51.350;6.708;2022-11-20T11:45:25;27.57;;;15.00;;
11665;SDS011;5889;51.350;6.708;2022-11-20T11:47:52;25.70;;;14.60;;
11665;SDS011;5889;51.350;6.708;2022-11-20T11:50:24;25.03;;;14.83;;
11665;SDS011;5889;51.350;6.708;2022-11-20T11:52:56;24.60;;;14.07;;
11665;SDS011;5889;51.350;6.708;2022-11-20T11:55:31;24.70;;;14.70;;
11665;SDS011;5889;51.350;6.708;2022-11-20T11:58:08;27.30;;;14.67;;
11665;SDS011;5889;51.350;6.708;2022-11-20T12:00:41;25.07;;;14.57;;
11665;SDS011;5889;51.350;6.708;2022-11-20T12:03:18;27.50;;;14.50;;
11665;SDS011;5889;51.350;6.708;2022-11-20T12:05:49;31.73;;;14.90;;
11665;SDS011;5889;51.350;6.708;2022-11-20T12:08:23;29.73;;;15.80;;
11665;SDS011;5889;51.350;6.708;2022-11-20T12:10:53;26.17;;;15.67;;
11665;SDS011;5889;51.350;6.708;2022-11-20T12:13:32;28.43;;;15.40;;
11665;SDS011;5889;51.350;6.708;2022-11-20T12:16:07;26.50;;;15.10;;
11665;SDS011;5889;51.350;6.708;2022-11-20T12:18:38;29.13;;;16.27;;
11665;SDS011;5889;51.350;6.708;2022-11-20T12:21:10;28.87;;;15.53;;
11665;SDS011;5889;51.350;6.708;2022-11-20T12:23:46;28.20;;;16.00;;
11665;SDS011;5889;51.350;6.708;2022-11-20T12:26:41;29.33;;;15.53;;
11665;SDS011;5889;51.350;6.708;2022-11-20T12:29:18;25.13;;;14.63;;
11665;SDS011;5889;51.350;6.708;2022-11-20T12:32:09;24.93;;;14.83;;
11665;SDS011;5889;51.350;6.708;2022-11-20T12:35:00;28.70;;;15.77;;
11665;SDS011;5889;51.350;6.708;2022-11-20T12:37:35;27.57;;;16.07;;
11665;SDS011;5889;51.350;6.708;2022-11-20T12:40:15;26.47;;;15.17;;
11665;SDS011;5889;51.350;6.708;2022-11-20T12:42:56;26.47;;;14.73;;
11665;SDS011;5889;51.350;6.708;2022-11-20T12:46:03;23.70;;;14.13;;
11665;SDS011;5889;51.350;6.708;2022-11-20T12:48:42;23.40;;;14.60;;
11665;SDS011;5889;51.350;6.708;2022-11-20T12:51:28;26.20;;;15.53;;
11665;SDS011;5889;51.350;6.708;2022-11-20T12:54:30;24.67;;;14.63;;
11665;SDS011;5889;51.350;6.708;2022-11-20T12:57:16;25.93;;;15.30;;
11665;SDS011;5889;51.350;6.708;2022-11-20T12:59:54;25.70;;;15.50;;
11665;SDS011;5889;51.350;6.708;2022-11-20T13:02:33;27.97;;;16.20;;
11665;SDS011;5889;51.350;6.708;2022-11-20T13:05:07;25.23;;;15.33;;
11665;SDS011;5889;51.350;6.708;2022-11-20T13:07:47;25.93;;;14.43;;
11665;SDS011;5889;51.350;6.708;2022-11-20T13:10:20;27.57;;;16.83;;
11665;SDS011;5889;51.350;6.708;2022-11-20T13:12:55;29.17;;;15.37;;
11665;SDS011;5889;51.350;6.708;2022-11-20T13:15:35;28.87;;;15.87;;
11665;SDS011;5889;51.350;6.708;2022-11-20T13:18:10;32.17;;;16.77;;
11665;SDS011;5889;51.350;6.708;2022-11-20T13:20:41;30.93;;;17.60;;
11665;SDS011;5889;51.350;6.708;2022-11-20T13:23:09;28.20;;;16.27;;
11665;SDS011;5889;51.350;6.708;2022-11-20T13:25:38;29.57;;;17.00;;
11665;SDS011;5889;51.350;6.708;2022-11-20T13:30:53;34.20;;;17.13;;
11665;SDS011;5889;51.350;6.708;2022-11-20T13:33:22;31.47;;;16.60;;
11665;SDS011;5889;51.350;6.708;2022-11-20T13:35:55;31.93;;;16.30;;
11665;SDS011;5889;51.350;6.708;2022-11-20T13:38:23;31.53;;;17.50;;
11665;SDS011;5889;51.350;6.708;2022-11-20T13:40:52;30.83;;;17.23;;
11665;SDS011;5889;51.350;6.708;2022-11-20T13:43:28;29.57;;;17.07;;
11665;SDS011;5889;51.350;6.708;2022-11-20T13:46:03;31.00;;;17.17;;
11665;SDS011;5889;51.350;6.708;2022-11-20T13:48:32;31.83;;;16.47;;
11665;SDS011;5889;51.350;6.708;2022-11-20T13:51:10;31.17;;;17.20;;
11665;SDS011;5889;51.350;6.708;2022-11-20T13:53:47;32.17;;;18.10;;
11665;SDS011;5889;51.350;6.708;2022-11-20T13:56:39;33.80;;;18.20;;
11665;SDS011;5889;51.350;6.708;2022-11-20T13:59:20;30.60;;;17.67;;
11665;SDS011;5889;51.350;6.708;2022-11-20T14:01:58;30.27;;;17.27;;
11665;SDS011;5889;51.350;6.708;2022-11-20T14:04:27;32.53;;;18.13;;
11665;SDS011;5889;51.350;6.708;2022-11-20T14:06:58;31.90;;;17.37;;
11665;SDS011;5889;51.350;6.708;2022-11-20T14:09:26;37.23;;;19.83;;
11665;SDS011;5889;51.350;6.708;2022-11-20T14:11:56;32.07;;;19.27;;
11665;SDS011;5889;51.350;6.708;2022-11-20T14:14:24;34.97;;;18.80;;
11665;SDS011;5889;51.350;6.708;2022-11-20T14:16:52;32.60;;;18.10;;
11665;SDS011;5889;51.350;6.708;2022-11-20T14:19:24;33.90;;;18.67;;
11665;SDS011;5889;51.350;6.708;2022-11-20T14:21:54;37.30;;;20.83;;
11665;SDS011;5889;51.350;6.708;2022-11-20T14:24:32;35.40;;;20.37;;
11665;SDS011;5889;51.350;6.708;2022-11-20T14:27:00;30.97;;;18.23;;
11665;SDS011;5889;51.350;6.708;2022-11-20T14:29:28;36.23;;;19.73;;
11665;SDS011;5889;51.350;6.708;2022-11-20T14:31:59;33.47;;;20.53;;
11665;SDS011;5889;51.350;6.708;2022-11-20T14:34:27;38.43;;;20.10;;
11665;SDS011;5889;51.350;6.708;2022-11-20T14:36:57;36.47;;;19.37;;
11665;SDS011;5889;51.350;6.708;2022-11-20T14:39:26;38.00;;;21.20;;
11665;SDS011;5889;51.350;6.708;2022-11-20T14:41:56;47.57;;;20.50;;
11665;SDS011;5889;51.350;6.708;2022-11-20T14:44:25;38.80;;;19.57;;
11665;SDS011;5889;51.350;6.708;2022-11-20T14:46:56;37.63;;;19.20;;
11665;SDS011;5889;51.350;6.708;2022-11-20T14:49:24;37.10;;;19.50;;
11665;SDS011;5889;51.350;6.708;2022-11-20T14:51:58;39.43;;;19.70;;
11665;SDS011;5889;51.350;6.708;2022-11-20T14:54:25;40.13;;;19.60;;
11665;SDS011;5889;51.350;6.708;2022-11-20T14:56:53;36.80;;;18.43;;
11665;SDS011;5889;51.350;6.708;2022-11-20T14:59:22;40.93;;;20.20;;
11665;SDS011;5889;51.350;6.708;2022-11-20T15:01:55;38.20;;;18.73;;